sensor_id;sensor_type;location;lat;lon;timestamp;temperature;humidity
19868;DHT22;10096;51.112;6.776;2023-02-15T00:01:36;4.00;99.90
19868;DHT22;10096;51.112;6.776;2023-02-15T00:04:03;4.00;99.90
19868;DHT22;10096;51.112;6.776;2023-02-15T00:06:31;4.00;99.90
19868;DHT22;10096;51.112;6.776;2023-02-15T00:08:59;3.90;99.90
19868;DHT22;10096;51.112;6.776;2023-02-15T00:11:26;3.90;99.90
19868;DHT22;10096;51.112;6.776;2023-02-15T00:14:17;3.90;99.90
19868;DHT22;10096;51.112;6.776;2023-02-15T00:16:46;3.80;99.90
19868;DHT22;10096;51.112;6.776;2023-02-15T00:19:15;4.10;99.90
19868;DHT22;10096;51.112;6.776;2023-02-15T00:21:43;3.80;99.90
19868;DHT22;10096;51.112;6.776;2023-02-15T00:24:11;3.80;99.90
19868;DHT22;10096;51.112;6.776;2023-02-15T00:26:39;3.80;99.90
19868;DHT22;10096;51.112;6.776;2023-02-15T00:29:07;3.90;99.90
19868;DHT22;10096;51.112;6.776;2023-02-15T00:31:37;3.80;99.90
19868;DHT22;10096;51.112;6.776;2023-02-15T00:34:07;3.90;99.90
19868;DHT22;10096;51.112;6.776;2023-02-15T00:36:37;3.70;99.90
19868;DHT22;10096;51.112;6.776;2023-02-15T00:39:04;3.70;99.90
19868;DHT22;10096;51.112;6.776;2023-02-15T00:41:31;3.80;99.90
19868;DHT22;10096;51.112;6.776;2023-02-15T00:43:58;3.60;99.90
19868;DHT22;10096;51.112;6.776;2023-02-15T00:46:25;3.60;99.90
19868;DHT22;10096;51.112;6.776;2023-02-15T00:48:52;3.60;99.90
19868;DHT22;10096;51.112;6.776;2023-02-15T00:51:20;3.60;99.90
19868;DHT22;10096;51.112;6.776;2023-02-15T00:53:48;3.60;99.90
19868;DHT22;10096;51.112;6.776;2023-02-15T00:56:15;3.50;99.90
19868;DHT22;10096;51.112;6.776;2023-02-15T00:58:42;3.50;99.90
19868;DHT22;10096;51.112;6.776;2023-02-15T01:01:11;3.70;99.90
19868;DHT22;10096;51.112;6.776;2023-02-15T01:03:39;3.50;99.90
19868;DHT22;10096;51.112;6.776;2023-02-15T01:06:07;3.50;99.90
19868;DHT22;10096;51.112;6.776;2023-02-15T01:08:35;3.40;99.90
19868;DHT22;10096;51.112;6.776;2023-02-15T01:11:04;3.40;99.90
19868;DHT22;10096;51.112;6.776;2023-02-15T01:13:31;3.40;1.00
19868;DHT22;10096;51.112;6.776;2023-02-15T01:15:58;3.50;1.00
19868;DHT22;10096;51.112;6.776;2023-02-15T01:18:26;3.60;1.00
19868;DHT22;10096;51.112;6.776;2023-02-15T01:20:53;3.70;1.00
19868;DHT22;10096;51.112;6.776;2023-02-15T01:23:20;3.70;1.00
19868;DHT22;10096;51.112;6.776;2023-02-15T01:25:48;3.60;1.00
19868;DHT22;10096;51.112;6.776;2023-02-15T01:28:15;3.40;1.00
19868;DHT22;10096;51.112;6.776;2023-02-15T01:30:42;3.50;1.00
19868;DHT22;10096;51.112;6.776;2023-02-15T01:33:10;3.60;1.00
19868;DHT22;10096;51.112;6.776;2023-02-15T01:35:43;3.30;1.00
19868;DHT22;10096;51.112;6.776;2023-02-15T01:38:10;3.60;1.00
19868;DHT22;10096;51.112;6.776;2023-02-15T01:40:38;3.30;1.00
19868;DHT22;10096;51.112;6.776;2023-02-15T01:43:10;3.40;1.00
19868;DHT22;10096;51.112;6.776;2023-02-15T01:45:38;3.40;1.00
19868;DHT22;10096;51.112;6.776;2023-02-15T01:48:19;3.50;1.00
19868;DHT22;10096;51.112;6.776;2023-02-15T01:50:50;3.40;1.00
19868;DHT22;10096;51.112;6.776;2023-02-15T01:53:24;3.60;1.00
19868;DHT22;10096;51.112;6.776;2023-02-15T01:55:54;3.30;1.00
19868;DHT22;10096;51.112;6.776;2023-02-15T01:58:26;3.40;1.00
19868;DHT22;10096;51.112;6.776;2023-02-15T02:00:56;3.30;1.00
19868;DHT22;10096;51.112;6.776;2023-02-15T02:03:30;3.50;1.00
19868;DHT22;10096;51.112;6.776;2023-02-15T02:06:03;3.60;1.00
19868;DHT22;10096;51.112;6.776;2023-02-15T02:08:30;3.30;1.00
19868;DHT22;10096;51.112;6.776;2023-02-15T02:10:58;3.50;1.00
19868;DHT22;10096;51.112;6.776;2023-02-15T02:13:26;3.30;1.00
19868;DHT22;10096;51.112;6.776;2023-02-15T02:15:58;3.20;1.00
19868;DHT22;10096;51.112;6.776;2023-02-15T02:18:38;3.30;1.00
19868;DHT22;10096;51.112;6.776;2023-02-15T02:24:31;3.30;1.00
19868;DHT22;10096;51.112;6.776;2023-02-15T02:27:28;3.30;1.00
19868;DHT22;10096;51.112;6.776;2023-02-15T02:30:34;3.20;1.00
19868;DHT22;10096;51.112;6.776;2023-02-15T02:36:48;3.10;1.00
19868;DHT22;10096;51.112;6.776;2023-02-15T02:39:23;3.10;1.00
19868;DHT22;10096;51.112;6.776;2023-02-15T02:42:00;3.00;1.00
19868;DHT22;10096;51.112;6.776;2023-02-15T02:44:34;3.10;1.00
19868;DHT22;10096;51.112;6.776;2023-02-15T02:47:05;3.00;1.00
19868;DHT22;10096;51.112;6.776;2023-02-15T02:49:36;3.10;1.00
19868;DHT22;10096;51.112;6.776;2023-02-15T02:52:30;2.90;1.00
19868;DHT22;10096;51.112;6.776;2023-02-15T02:54:54;3.10;1.00
19868;DHT22;10096;51.112;6.776;2023-02-15T02:57:23;2.90;1.00
19868;DHT22;10096;51.112;6.776;2023-02-15T02:59:51;3.10;1.00
19868;DHT22;10096;51.112;6.776;2023-02-15T03:02:22;2.90;1.00
19868;DHT22;10096;51.112;6.776;2023-02-15T03:04:53;3.00;1.00
19868;DHT22;10096;51.112;6.776;2023-02-15T03:07:26;2.80;1.00
19868;DHT22;10096;51.112;6.776;2023-02-15T03:09:56;2.80;1.00
19868;DHT22;10096;51.112;6.776;2023-02-15T03:12:27;2.70;1.00
19868;DHT22;10096;51.112;6.776;2023-02-15T03:14:58;2.90;1.00
19868;DHT22;10096;51.112;6.776;2023-02-15T03:17:31;3.00;1.00
19868;DHT22;10096;51.112;6.776;2023-02-15T03:20:06;2.70;1.00
19868;DHT22;10096;51.112;6.776;2023-02-15T03:22:39;2.80;1.00
19868;DHT22;10096;51.112;6.776;2023-02-15T03:25:11;2.80;1.00
19868;DHT22;10096;51.112;6.776;2023-02-15T03:27:44;2.80;1.00
19868;DHT22;10096;51.112;6.776;2023-02-15T03:30:13;2.70;1.00
19868;DHT22;10096;51.112;6.776;2023-02-15T03:32:42;3.00;1.00
19868;DHT22;10096;51.112;6.776;2023-02-15T03:35:10;2.70;1.00
19868;DHT22;10096;51.112;6.776;2023-02-15T03:37:41;2.90;1.00
19868;DHT22;10096;51.112;6.776;2023-02-15T03:40:14;2.90;1.00
19868;DHT22;10096;51.112;6.776;2023-02-15T03:43:03;2.70;1.00
19868;DHT22;10096;51.112;6.776;2023-02-15T03:45:35;2.80;1.00
19868;DHT22;10096;51.112;6.776;2023-02-15T03:48:21;2.80;29.50
19868;DHT22;10096;51.112;6.776;2023-02-15T03:50:49;2.70;5.50
19868;DHT22;10096;51.112;6.776;2023-02-15T03:53:36;2.80;16.90
19868;DHT22;10096;51.112;6.776;2023-02-15T03:56:04;2.60;58.00
19868;DHT22;10096;51.112;6.776;2023-02-15T03:58:32;2.60;28.90
19868;DHT22;10096;51.112;6.776;2023-02-15T04:01:23;2.80;58.10
19868;DHT22;10096;51.112;6.776;2023-02-15T04:04:26;2.80;22.20
19868;DHT22;10096;51.112;6.776;2023-02-15T04:06:55;2.80;70.90
19868;DHT22;10096;51.112;6.776;2023-02-15T04:09:23;2.60;62.60
19868;DHT22;10096;51.112;6.776;2023-02-15T04:12:08;2.60;99.80
19868;DHT22;10096;51.112;6.776;2023-02-15T04:14:35;2.60;99.90
19868;DHT22;10096;51.112;6.776;2023-02-15T04:17:19;2.60;87.40
19868;DHT22;10096;51.112;6.776;2023-02-15T04:19:46;2.70;99.90
19868;DHT22;10096;51.112;6.776;2023-02-15T04:22:31;2.50;99.90
19868;DHT22;10096;51.112;6.776;2023-02-15T04:25:17;2.50;99.90
19868;DHT22;10096;51.112;6.776;2023-02-15T04:27:46;2.40;99.90
19868;DHT22;10096;51.112;6.776;2023-02-15T04:30:15;2.70;99.90
19868;DHT22;10096;51.112;6.776;2023-02-15T04:32:42;2.50;99.90
19868;DHT22;10096;51.112;6.776;2023-02-15T04:35:10;2.50;99.90
19868;DHT22;10096;51.112;6.776;2023-02-15T04:37:37;2.40;99.90
19868;DHT22;10096;51.112;6.776;2023-02-15T04:40:06;2.30;99.90
19868;DHT22;10096;51.112;6.776;2023-02-15T04:42:35;2.40;99.90
19868;DHT22;10096;51.112;6.776;2023-02-15T04:45:02;2.30;99.90
19868;DHT22;10096;51.112;6.776;2023-02-15T04:47:29;2.40;99.90
19868;DHT22;10096;51.112;6.776;2023-02-15T04:49:56;2.50;99.90
19868;DHT22;10096;51.112;6.776;2023-02-15T04:52:23;2.40;99.90
19868;DHT22;10096;51.112;6.776;2023-02-15T04:54:50;2.30;99.90
19868;DHT22;10096;51.112;6.776;2023-02-15T04:57:17;2.30;99.90
19868;DHT22;10096;51.112;6.776;2023-02-15T04:59:48;2.30;99.90
19868;DHT22;10096;51.112;6.776;2023-02-15T05:02:15;2.30;99.90
19868;DHT22;10096;51.112;6.776;2023-02-15T05:04:41;2.50;99.90
19868;DHT22;10096;51.112;6.776;2023-02-15T05:07:08;2.30;99.90
19868;DHT22;10096;51.112;6.776;2023-02-15T05:09:35;2.30;99.90
19868;DHT22;10096;51.112;6.776;2023-02-15T05:12:02;2.30;99.90
19868;DHT22;10096;51.112;6.776;2023-02-15T05:14:29;2.40;99.90
19868;DHT22;10096;51.112;6.776;2023-02-15T05:16:57;2.30;99.90
19868;DHT22;10096;51.112;6.776;2023-02-15T05:19:27;2.30;99.90
19868;DHT22;10096;51.112;6.776;2023-02-15T05:21:54;2.30;99.90
19868;DHT22;10096;51.112;6.776;2023-02-15T05:24:22;2.30;99.90
19868;DHT22;10096;51.112;6.776;2023-02-15T05:27:07;2.30;99.90
19868;DHT22;10096;51.112;6.776;2023-02-15T05:29:52;2.30;99.90
19868;DHT22;10096;51.112;6.776;2023-02-15T05:32:20;2.20;99.90
19868;DHT22;10096;51.112;6.776;2023-02-15T05:34:47;2.30;99.90
19868;DHT22;10096;51.112;6.776;2023-02-15T05:37:14;2.40;99.90
19868;DHT22;10096;51.112;6.776;2023-02-15T05:39:41;2.40;99.90
19868;DHT22;10096;51.112;6.776;2023-02-15T05:42:08;2.20;99.90
19868;DHT22;10096;51.112;6.776;2023-02-15T05:44:35;2.20;99.90
19868;DHT22;10096;51.112;6.776;2023-02-15T05:47:02;2.20;99.90
19868;DHT22;10096;51.112;6.776;2023-02-15T05:49:31;2.40;99.90
19868;DHT22;10096;51.112;6.776;2023-02-15T05:51:58;2.30;99.90
19868;DHT22;10096;51.112;6.776;2023-02-15T05:54:25;2.40;99.90
19868;DHT22;10096;51.112;6.776;2023-02-15T05:56:52;2.20;99.90
19868;DHT22;10096;51.112;6.776;2023-02-15T05:59:18;2.30;99.90
19868;DHT22;10096;51.112;6.776;2023-02-15T06:01:45;2.40;99.90
19868;DHT22;10096;51.112;6.776;2023-02-15T06:04:13;2.40;99.90
19868;DHT22;10096;51.112;6.776;2023-02-15T06:06:41;2.40;99.90
19868;DHT22;10096;51.112;6.776;2023-02-15T06:09:13;2.30;99.90
19868;DHT22;10096;51.112;6.776;2023-02-15T06:11:40;2.20;99.90
19868;DHT22;10096;51.112;6.776;2023-02-15T06:14:07;2.20;99.90
19868;DHT22;10096;51.112;6.776;2023-02-15T06:16:34;2.20;99.90
19868;DHT22;10096;51.112;6.776;2023-02-15T06:19:01;2.20;99.90
19868;DHT22;10096;51.112;6.776;2023-02-15T06:21:29;2.30;99.90
19868;DHT22;10096;51.112;6.776;2023-02-15T06:23:59;2.30;99.90
19868;DHT22;10096;51.112;6.776;2023-02-15T06:26:26;2.10;99.90
19868;DHT22;10096;51.112;6.776;2023-02-15T06:28:53;2.50;99.90
19868;DHT22;10096;51.112;6.776;2023-02-15T06:31:20;2.10;99.90
19868;DHT22;10096;51.112;6.776;2023-02-15T06:33:48;2.40;99.90
19868;DHT22;10096;51.112;6.776;2023-02-15T06:36:15;2.10;99.90
19868;DHT22;10096;51.112;6.776;2023-02-15T06:38:42;2.30;99.90
19868;DHT22;10096;51.112;6.776;2023-02-15T06:41:10;2.20;99.90
19868;DHT22;10096;51.112;6.776;2023-02-15T06:43:37;2.10;99.90
19868;DHT22;10096;51.112;6.776;2023-02-15T06:46:04;2.20;99.90
19868;DHT22;10096;51.112;6.776;2023-02-15T06:48:31;2.40;99.90
19868;DHT22;10096;51.112;6.776;2023-02-15T06:50:58;2.10;92.40
19868;DHT22;10096;51.112;6.776;2023-02-15T06:53:25;2.10;94.90
19868;DHT22;10096;51.112;6.776;2023-02-15T06:56:07;2.20;29.20
19868;DHT22;10096;51.112;6.776;2023-02-15T06:58:36;2.30;10.10
19868;DHT22;10096;51.112;6.776;2023-02-15T07:01:03;2.50;1.00
19868;DHT22;10096;51.112;6.776;2023-02-15T07:03:30;2.40;1.00
19868;DHT22;10096;51.112;6.776;2023-02-15T07:05:59;2.40;1.00
19868;DHT22;10096;51.112;6.776;2023-02-15T07:08:26;2.60;1.00
19868;DHT22;10096;51.112;6.776;2023-02-15T07:10:54;2.60;1.00
19868;DHT22;10096;51.112;6.776;2023-02-15T07:13:43;2.80;1.00
19868;DHT22;10096;51.112;6.776;2023-02-15T07:16:10;2.90;1.00
19868;DHT22;10096;51.112;6.776;2023-02-15T07:18:39;2.70;1.00
19868;DHT22;10096;51.112;6.776;2023-02-15T07:21:07;2.70;1.00
19868;DHT22;10096;51.112;6.776;2023-02-15T07:23:35;2.80;1.00
19868;DHT22;10096;51.112;6.776;2023-02-15T07:26:02;2.90;1.00
19868;DHT22;10096;51.112;6.776;2023-02-15T07:28:29;3.10;1.00
19868;DHT22;10096;51.112;6.776;2023-02-15T07:30:58;3.70;99.90
19868;DHT22;10096;51.112;6.776;2023-02-15T07:33:25;4.30;99.90
19868;DHT22;10096;51.112;6.776;2023-02-15T07:35:54;4.70;99.90
19868;DHT22;10096;51.112;6.776;2023-02-15T07:38:22;5.20;13.50
19868;DHT22;10096;51.112;6.776;2023-02-15T07:40:51;5.40;1.00
19868;DHT22;10096;51.112;6.776;2023-02-15T07:43:23;5.60;1.00
19868;DHT22;10096;51.112;6.776;2023-02-15T07:45:50;5.80;1.00
19868;DHT22;10096;51.112;6.776;2023-02-15T07:48:19;6.10;1.00
19868;DHT22;10096;51.112;6.776;2023-02-15T07:50:45;6.30;1.00
19868;DHT22;10096;51.112;6.776;2023-02-15T07:53:16;6.60;1.00
19868;DHT22;10096;51.112;6.776;2023-02-15T07:55:43;6.50;1.00
19868;DHT22;10096;51.112;6.776;2023-02-15T07:58:10;6.90;1.00
19868;DHT22;10096;51.112;6.776;2023-02-15T08:00:37;6.70;1.00
19868;DHT22;10096;51.112;6.776;2023-02-15T08:03:22;6.60;1.00
19868;DHT22;10096;51.112;6.776;2023-02-15T08:05:55;6.60;1.00
19868;DHT22;10096;51.112;6.776;2023-02-15T08:08:23;6.50;1.00
19868;DHT22;10096;51.112;6.776;2023-02-15T08:11:00;6.50;1.00
19868;DHT22;10096;51.112;6.776;2023-02-15T08:13:46;6.50;1.00
19868;DHT22;10096;51.112;6.776;2023-02-15T08:16:20;6.60;1.00
19868;DHT22;10096;51.112;6.776;2023-02-15T08:18:49;6.60;1.00
19868;DHT22;10096;51.112;6.776;2023-02-15T08:21:17;6.30;1.00
19868;DHT22;10096;51.112;6.776;2023-02-15T08:23:44;6.10;1.00
19868;DHT22;10096;51.112;6.776;2023-02-15T08:26:11;5.40;1.00
19868;DHT22;10096;51.112;6.776;2023-02-15T08:28:41;4.90;1.00
19868;DHT22;10096;51.112;6.776;2023-02-15T08:31:09;4.70;1.00
19868;DHT22;10096;51.112;6.776;2023-02-15T08:33:38;4.60;1.00
19868;DHT22;10096;51.112;6.776;2023-02-15T08:36:09;4.70;1.00
19868;DHT22;10096;51.112;6.776;2023-02-15T08:38:36;4.50;1.00
19868;DHT22;10096;51.112;6.776;2023-02-15T08:41:14;4.60;1.00
19868;DHT22;10096;51.112;6.776;2023-02-15T08:43:42;4.60;1.00
19868;DHT22;10096;51.112;6.776;2023-02-15T08:46:10;4.80;1.00
19868;DHT22;10096;51.112;6.776;2023-02-15T08:48:38;4.90;1.00
19868;DHT22;10096;51.112;6.776;2023-02-15T08:51:12;4.80;1.00
19868;DHT22;10096;51.112;6.776;2023-02-15T08:53:41;4.90;1.00
19868;DHT22;10096;51.112;6.776;2023-02-15T08:56:08;5.10;1.00
19868;DHT22;10096;51.112;6.776;2023-02-15T08:58:36;5.00;1.00
19868;DHT22;10096;51.112;6.776;2023-02-15T09:01:08;5.00;1.00
19868;DHT22;10096;51.112;6.776;2023-02-15T09:03:35;5.10;1.00
19868;DHT22;10096;51.112;6.776;2023-02-15T09:06:03;5.30;1.00
19868;DHT22;10096;51.112;6.776;2023-02-15T09:08:35;5.20;1.00
19868;DHT22;10096;51.112;6.776;2023-02-15T09:11:07;5.20;1.00
19868;DHT22;10096;51.112;6.776;2023-02-15T09:13:35;5.40;1.00
19868;DHT22;10096;51.112;6.776;2023-02-15T09:16:03;5.50;1.00
19868;DHT22;10096;51.112;6.776;2023-02-15T09:18:32;5.60;1.00
19868;DHT22;10096;51.112;6.776;2023-02-15T09:21:05;5.50;1.00
19868;DHT22;10096;51.112;6.776;2023-02-15T09:23:34;5.60;1.00
19868;DHT22;10096;51.112;6.776;2023-02-15T09:26:03;5.70;1.00
19868;DHT22;10096;51.112;6.776;2023-02-15T09:28:30;6.00;1.00
19868;DHT22;10096;51.112;6.776;2023-02-15T09:31:05;6.10;1.00
19868;DHT22;10096;51.112;6.776;2023-02-15T09:33:34;6.20;1.00
19868;DHT22;10096;51.112;6.776;2023-02-15T09:36:01;6.10;1.00
19868;DHT22;10096;51.112;6.776;2023-02-15T09:38:29;6.00;1.00
19868;DHT22;10096;51.112;6.776;2023-02-15T09:41:08;6.00;1.00
19868;DHT22;10096;51.112;6.776;2023-02-15T09:43:42;6.10;1.00
19868;DHT22;10096;51.112;6.776;2023-02-15T09:46:25;6.00;1.00
19868;DHT22;10096;51.112;6.776;2023-02-15T09:49:02;6.20;1.00
19868;DHT22;10096;51.112;6.776;2023-02-15T09:51:55;6.20;1.00
19868;DHT22;10096;51.112;6.776;2023-02-15T09:54:42;6.30;1.00
19868;DHT22;10096;51.112;6.776;2023-02-15T09:57:22;6.40;1.00
19868;DHT22;10096;51.112;6.776;2023-02-15T10:00:00;6.50;1.00
19868;DHT22;10096;51.112;6.776;2023-02-15T10:02:42;6.50;1.00
19868;DHT22;10096;51.112;6.776;2023-02-15T10:05:21;6.50;1.00
19868;DHT22;10096;51.112;6.776;2023-02-15T10:08:10;6.60;1.00
19868;DHT22;10096;51.112;6.776;2023-02-15T10:10:48;6.80;1.00
19868;DHT22;10096;51.112;6.776;2023-02-15T10:13:29;6.80;1.00
19868;DHT22;10096;51.112;6.776;2023-02-15T10:16:11;7.00;1.00
19868;DHT22;10096;51.112;6.776;2023-02-15T10:18:50;7.00;1.00
19868;DHT22;10096;51.112;6.776;2023-02-15T10:21:28;7.00;1.00
19868;DHT22;10096;51.112;6.776;2023-02-15T10:24:20;7.10;1.00
19868;DHT22;10096;51.112;6.776;2023-02-15T10:26:55;7.30;1.00
19868;DHT22;10096;51.112;6.776;2023-02-15T10:29:32;7.30;1.00
19868;DHT22;10096;51.112;6.776;2023-02-15T10:32:09;7.50;1.00
19868;DHT22;10096;51.112;6.776;2023-02-15T10:34:51;7.60;1.00
19868;DHT22;10096;51.112;6.776;2023-02-15T10:37:47;7.40;1.00
19868;DHT22;10096;51.112;6.776;2023-02-15T10:40:25;7.70;1.00
19868;DHT22;10096;51.112;6.776;2023-02-15T10:43:14;7.90;1.00
19868;DHT22;10096;51.112;6.776;2023-02-15T10:45:56;7.80;1.00
19868;DHT22;10096;51.112;6.776;2023-02-15T10:48:51;7.90;1.00
19868;DHT22;10096;51.112;6.776;2023-02-15T10:51:32;7.90;1.00
19868;DHT22;10096;51.112;6.776;2023-02-15T10:54:13;8.00;1.00
19868;DHT22;10096;51.112;6.776;2023-02-15T10:56:47;8.10;1.00
19868;DHT22;10096;51.112;6.776;2023-02-15T10:59:50;8.30;1.00
19868;DHT22;10096;51.112;6.776;2023-02-15T11:02:33;8.30;1.00
19868;DHT22;10096;51.112;6.776;2023-02-15T11:05:20;8.40;1.00
19868;DHT22;10096;51.112;6.776;2023-02-15T11:07:59;8.30;1.00
19868;DHT22;10096;51.112;6.776;2023-02-15T11:10:32;8.30;1.00
19868;DHT22;10096;51.112;6.776;2023-02-15T11:13:06;8.40;1.00
19868;DHT22;10096;51.112;6.776;2023-02-15T11:15:38;8.50;1.00
19868;DHT22;10096;51.112;6.776;2023-02-15T11:18:11;8.40;1.00
19868;DHT22;10096;51.112;6.776;2023-02-15T11:20:45;8.40;1.00
19868;DHT22;10096;51.112;6.776;2023-02-15T11:23:16;8.50;1.00
19868;DHT22;10096;51.112;6.776;2023-02-15T11:25:47;8.70;1.00
19868;DHT22;10096;51.112;6.776;2023-02-15T11:28:23;8.70;1.00
19868;DHT22;10096;51.112;6.776;2023-02-15T11:30:54;8.80;1.00
19868;DHT22;10096;51.112;6.776;2023-02-15T11:33:27;9.00;1.00
19868;DHT22;10096;51.112;6.776;2023-02-15T11:36:00;9.00;1.00
19868;DHT22;10096;51.112;6.776;2023-02-15T11:38:32;9.50;1.00
19868;DHT22;10096;51.112;6.776;2023-02-15T11:41:02;9.30;1.00
19868;DHT22;10096;51.112;6.776;2023-02-15T11:43:34;9.30;1.00
19868;DHT22;10096;51.112;6.776;2023-02-15T11:46:03;9.20;1.00
19868;DHT22;10096;51.112;6.776;2023-02-15T11:48:32;9.30;1.00
19868;DHT22;10096;51.112;6.776;2023-02-15T11:51:00;9.40;1.00
19868;DHT22;10096;51.112;6.776;2023-02-15T11:53:32;9.60;1.00
19868;DHT22;10096;51.112;6.776;2023-02-15T11:56:01;9.70;1.00
19868;DHT22;10096;51.112;6.776;2023-02-15T11:58:33;9.90;1.00
19868;DHT22;10096;51.112;6.776;2023-02-15T12:01:08;9.80;1.00
19868;DHT22;10096;51.112;6.776;2023-02-15T12:03:45;9.90;1.00
19868;DHT22;10096;51.112;6.776;2023-02-15T12:06:22;9.90;1.00
19868;DHT22;10096;51.112;6.776;2023-02-15T12:08:55;10.20;1.00
19868;DHT22;10096;51.112;6.776;2023-02-15T12:11:31;10.40;1.00
19868;DHT22;10096;51.112;6.776;2023-02-15T12:14:01;10.20;1.00
19868;DHT22;10096;51.112;6.776;2023-02-15T12:16:29;10.50;1.00
19868;DHT22;10096;51.112;6.776;2023-02-15T12:19:29;10.30;1.00
19868;DHT22;10096;51.112;6.776;2023-02-15T12:21:57;10.50;1.00
19868;DHT22;10096;51.112;6.776;2023-02-15T12:24:27;10.60;1.00
19868;DHT22;10096;51.112;6.776;2023-02-15T12:27:02;10.60;1.00
19868;DHT22;10096;51.112;6.776;2023-02-15T12:29:35;10.70;1.00
19868;DHT22;10096;51.112;6.776;2023-02-15T12:32:10;10.90;1.00
19868;DHT22;10096;51.112;6.776;2023-02-15T12:34:40;10.90;1.00
19868;DHT22;10096;51.112;6.776;2023-02-15T12:37:15;10.90;1.00
19868;DHT22;10096;51.112;6.776;2023-02-15T12:39:52;10.80;1.00
19868;DHT22;10096;51.112;6.776;2023-02-15T12:42:19;10.90;1.00
19868;DHT22;10096;51.112;6.776;2023-02-15T12:44:56;11.00;1.00
19868;DHT22;10096;51.112;6.776;2023-02-15T12:47:24;11.00;1.00
19868;DHT22;10096;51.112;6.776;2023-02-15T12:50:23;11.30;1.00
19868;DHT22;10096;51.112;6.776;2023-02-15T12:54:42;10.90;1.00
19868;DHT22;10096;51.112;6.776;2023-02-15T12:56:18;11.20;1.00
19868;DHT22;10096;51.112;6.776;2023-02-15T12:59:05;11.20;1.00
19868;DHT22;10096;51.112;6.776;2023-02-15T13:01:32;11.20;1.00
19868;DHT22;10096;51.112;6.776;2023-02-15T13:04:15;11.30;1.00
19868;DHT22;10096;51.112;6.776;2023-02-15T13:06:49;11.40;1.00
19868;DHT22;10096;51.112;6.776;2023-02-15T13:09:20;11.40;1.00
19868;DHT22;10096;51.112;6.776;2023-02-15T13:11:47;11.60;1.00
19868;DHT22;10096;51.112;6.776;2023-02-15T13:14:18;11.60;1.00
19868;DHT22;10096;51.112;6.776;2023-02-15T13:16:48;11.60;1.00
19868;DHT22;10096;51.112;6.776;2023-02-15T13:19:20;11.60;1.00
19868;DHT22;10096;51.112;6.776;2023-02-15T13:21:52;11.60;1.00
19868;DHT22;10096;51.112;6.776;2023-02-15T13:24:23;11.80;1.00
19868;DHT22;10096;51.112;6.776;2023-02-15T13:26:51;11.70;1.00
19868;DHT22;10096;51.112;6.776;2023-02-15T13:29:22;11.80;1.00
19868;DHT22;10096;51.112;6.776;2023-02-15T13:31:51;11.90;1.00
19868;DHT22;10096;51.112;6.776;2023-02-15T13:34:23;11.90;1.00
19868;DHT22;10096;51.112;6.776;2023-02-15T13:36:59;12.10;1.00
19868;DHT22;10096;51.112;6.776;2023-02-15T13:39:34;11.90;1.00
19868;DHT22;10096;51.112;6.776;2023-02-15T13:42:11;12.10;1.00
19868;DHT22;10096;51.112;6.776;2023-02-15T13:44:58;12.00;1.00
19868;DHT22;10096;51.112;6.776;2023-02-15T13:47:34;12.30;1.00
19868;DHT22;10096;51.112;6.776;2023-02-15T13:50:19;12.10;1.00
19868;DHT22;10096;51.112;6.776;2023-02-15T13:52:56;12.20;99.90
19868;DHT22;10096;51.112;6.776;2023-02-15T13:55:32;12.40;99.90
19868;DHT22;10096;51.112;6.776;2023-02-15T13:58:22;12.20;99.90
19868;DHT22;10096;51.112;6.776;2023-02-15T14:01:03;12.20;99.90
19868;DHT22;10096;51.112;6.776;2023-02-15T14:03:59;12.50;99.90
19868;DHT22;10096;51.112;6.776;2023-02-15T14:06:47;12.30;99.90
19868;DHT22;10096;51.112;6.776;2023-02-15T14:09:27;12.30;99.90
19868;DHT22;10096;51.112;6.776;2023-02-15T14:12:12;12.40;99.90
19868;DHT22;10096;51.112;6.776;2023-02-15T14:15:11;12.30;99.90
19868;DHT22;10096;51.112;6.776;2023-02-15T14:17:48;12.40;99.90
19868;DHT22;10096;51.112;6.776;2023-02-15T14:20:23;12.30;99.90
19868;DHT22;10096;51.112;6.776;2023-02-15T14:22:57;12.40;1.00
19868;DHT22;10096;51.112;6.776;2023-02-15T14:25:37;12.40;99.90
19868;DHT22;10096;51.112;6.776;2023-02-15T14:28:08;12.50;99.90
19868;DHT22;10096;51.112;6.776;2023-02-15T14:30:38;12.50;99.90
19868;DHT22;10096;51.112;6.776;2023-02-15T14:33:17;12.10;99.90
19868;DHT22;10096;51.112;6.776;2023-02-15T14:35:48;12.40;99.90
19868;DHT22;10096;51.112;6.776;2023-02-15T14:38:21;12.40;99.90
19868;DHT22;10096;51.112;6.776;2023-02-15T14:40:57;12.40;99.90
19868;DHT22;10096;51.112;6.776;2023-02-15T14:43:34;12.20;99.90
19868;DHT22;10096;51.112;6.776;2023-02-15T14:46:11;12.10;99.90
19868;DHT22;10096;51.112;6.776;2023-02-15T14:48:45;12.10;99.90
19868;DHT22;10096;51.112;6.776;2023-02-15T14:57:30;12.10;99.90
19868;DHT22;10096;51.112;6.776;2023-02-15T15:00:02;12.10;99.90
19868;DHT22;10096;51.112;6.776;2023-02-15T15:02:45;12.10;99.90
19868;DHT22;10096;51.112;6.776;2023-02-15T15:05:18;12.20;99.90
19868;DHT22;10096;51.112;6.776;2023-02-15T15:07:48;12.10;99.90
19868;DHT22;10096;51.112;6.776;2023-02-15T15:10:36;11.80;99.90
19868;DHT22;10096;51.112;6.776;2023-02-15T15:13:40;12.00;99.90
19868;DHT22;10096;51.112;6.776;2023-02-15T15:16:49;12.00;99.90
19868;DHT22;10096;51.112;6.776;2023-02-15T15:22:29;12.00;99.90
19868;DHT22;10096;51.112;6.776;2023-02-15T15:24:58;11.80;99.90
19868;DHT22;10096;51.112;6.776;2023-02-15T15:27:44;12.00;99.90
19868;DHT22;10096;51.112;6.776;2023-02-15T15:30:47;12.00;99.90
19868;DHT22;10096;51.112;6.776;2023-02-15T15:33:46;11.80;99.90
19868;DHT22;10096;51.112;6.776;2023-02-15T15:42:48;11.60;99.90
19868;DHT22;10096;51.112;6.776;2023-02-15T15:45:39;11.60;99.90
19868;DHT22;10096;51.112;6.776;2023-02-15T15:51:32;11.50;99.90
19868;DHT22;10096;51.112;6.776;2023-02-15T15:54:02;11.50;1.00
19868;DHT22;10096;51.112;6.776;2023-02-15T15:56:33;11.40;1.00
19868;DHT22;10096;51.112;6.776;2023-02-15T15:59:05;11.60;99.90
19868;DHT22;10096;51.112;6.776;2023-02-15T16:01:37;11.40;99.90
19868;DHT22;10096;51.112;6.776;2023-02-15T16:04:11;11.20;99.90
19868;DHT22;10096;51.112;6.776;2023-02-15T16:06:40;11.40;99.90
19868;DHT22;10096;51.112;6.776;2023-02-15T16:09:16;11.50;1.00
19868;DHT22;10096;51.112;6.776;2023-02-15T16:11:46;11.60;99.90
19868;DHT22;10096;51.112;6.776;2023-02-15T16:14:26;11.50;99.90
19868;DHT22;10096;51.112;6.776;2023-02-15T16:16:56;11.70;99.90
19868;DHT22;10096;51.112;6.776;2023-02-15T16:19:27;11.50;99.90
19868;DHT22;10096;51.112;6.776;2023-02-15T16:21:58;11.30;99.90
19868;DHT22;10096;51.112;6.776;2023-02-15T16:24:40;11.20;1.00
19868;DHT22;10096;51.112;6.776;2023-02-15T16:30:22;10.80;1.00
19868;DHT22;10096;51.112;6.776;2023-02-15T16:32:54;10.70;1.00
19868;DHT22;10096;51.112;6.776;2023-02-15T16:35:22;10.80;1.00
19868;DHT22;10096;51.112;6.776;2023-02-15T16:37:51;10.70;1.00
19868;DHT22;10096;51.112;6.776;2023-02-15T16:40:31;10.80;1.00
19868;DHT22;10096;51.112;6.776;2023-02-15T16:43:15;10.50;1.00
19868;DHT22;10096;51.112;6.776;2023-02-15T16:45:44;10.80;1.00
19868;DHT22;10096;51.112;6.776;2023-02-15T16:48:17;10.70;1.00
19868;DHT22;10096;51.112;6.776;2023-02-15T16:50:51;10.90;1.00
19868;DHT22;10096;51.112;6.776;2023-02-15T16:53:23;10.60;1.00
19868;DHT22;10096;51.112;6.776;2023-02-15T16:55:53;10.50;1.00
19868;DHT22;10096;51.112;6.776;2023-02-15T16:58:25;10.40;1.00
19868;DHT22;10096;51.112;6.776;2023-02-15T17:00:57;10.30;1.00